sensor_id;sensor_type;location;lat;lon;timestamp;pressure;altitude;pressure_sealevel;temperature;humidity
27729;BME280;15126;42.186;24.340;2023-03-17T00:00:17;99548.22;;;5.38;91.89
27729;BME280;15126;42.186;24.340;2023-03-17T00:02:46;99548.59;;;5.29;92.25
27729;BME280;15126;42.186;24.340;2023-03-17T00:05:17;99544.66;;;5.37;91.86
27729;BME280;15126;42.186;24.340;2023-03-17T00:07:46;99553.72;;;5.31;91.49
27729;BME280;15126;42.186;24.340;2023-03-17T00:10:15;99548.22;;;5.34;91.90
27729;BME280;15126;42.186;24.340;2023-03-17T00:12:43;99552.13;;;5.26;92.21
27729;BME280;15126;42.186;24.340;2023-03-17T00:15:11;99548.53;;;5.22;92.42
27729;BME280;15126;42.186;24.340;2023-03-17T00:17:38;99535.09;;;5.10;92.02
27729;BME280;15126;42.186;24.340;2023-03-17T00:20:09;99549.31;;;5.19;92.19
27729;BME280;15126;42.186;24.340;2023-03-17T00:22:38;99550.13;;;5.20;93.05
27729;BME280;15126;42.186;24.340;2023-03-17T00:25:17;99551.72;;;5.24;92.22
27729;BME280;15126;42.186;24.340;2023-03-17T00:27:44;99544.56;;;5.13;92.54
27729;BME280;15126;42.186;24.340;2023-03-17T00:30:11;99546.97;;;5.25;91.48
27729;BME280;15126;42.186;24.340;2023-03-17T00:32:39;99549.72;;;5.18;91.63
27729;BME280;15126;42.186;24.340;2023-03-17T00:35:14;99528.34;;;5.11;91.03
27729;BME280;15126;42.186;24.340;2023-03-17T00:37:43;99545.78;;;5.22;91.18
27729;BME280;15126;42.186;24.340;2023-03-17T00:40:15;99543.78;;;5.16;91.55
27729;BME280;15126;42.186;24.340;2023-03-17T00:42:43;99524.81;;;5.07;90.84
27729;BME280;15126;42.186;24.340;2023-03-17T00:45:10;99537.06;;;5.17;89.65
27729;BME280;15126;42.186;24.340;2023-03-17T00:47:38;99543.44;;;5.31;90.77
27729;BME280;15126;42.186;24.340;2023-03-17T00:50:08;99548.16;;;5.27;90.78
27729;BME280;15126;42.186;24.340;2023-03-17T00:52:35;99543.03;;;5.19;90.36
27729;BME280;15126;42.186;24.340;2023-03-17T00:55:06;99539.47;;;5.22;89.85
27729;BME280;15126;42.186;24.340;2023-03-17T00:57:33;99543.03;;;5.26;90.26
27729;BME280;15126;42.186;24.340;2023-03-17T01:00:01;99546.19;;;5.24;91.51
27729;BME280;15126;42.186;24.340;2023-03-17T01:02:28;99545.41;;;5.31;89.88
27729;BME280;15126;42.186;24.340;2023-03-17T01:04:57;99549.41;;;5.37;89.13
27729;BME280;15126;42.186;24.340;2023-03-17T01:07:24;99546.22;;;5.31;87.96
27729;BME280;15126;42.186;24.340;2023-03-17T01:09:53;99550.94;;;5.27;89.21
27729;BME280;15126;42.186;24.340;2023-03-17T01:12:21;99541.06;;;5.26;89.19
27729;BME280;15126;42.186;24.340;2023-03-17T01:14:48;99541.84;;;5.30;88.15
27729;BME280;15126;42.186;24.340;2023-03-17T01:17:16;99558.06;;;5.35;87.53
27729;BME280;15126;42.186;24.340;2023-03-17T01:19:44;99557.66;;;5.30;87.64
27729;BME280;15126;42.186;24.340;2023-03-17T01:22:11;99558.06;;;5.35;86.39
27729;BME280;15126;42.186;24.340;2023-03-17T01:24:38;99558.09;;;5.43;86.76
27729;BME280;15126;42.186;24.340;2023-03-17T01:27:05;99558.47;;;5.34;87.00
27729;BME280;15126;42.186;24.340;2023-03-17T01:29:34;99558.88;;;5.36;87.04
27729;BME280;15126;42.186;24.340;2023-03-17T01:32:00;99562.88;;;5.46;87.29
27729;BME280;15126;42.186;24.340;2023-03-17T01:34:27;99547.81;;;5.32;87.19
27729;BME280;15126;42.186;24.340;2023-03-17T01:36:54;99571.56;;;5.51;86.94
27729;BME280;15126;42.186;24.340;2023-03-17T01:39:21;99573.16;;;5.56;86.36
27729;BME280;15126;42.186;24.340;2023-03-17T01:41:48;99562.84;;;5.49;86.10
27729;BME280;15126;42.186;24.340;2023-03-17T01:44:16;99569.19;;;5.53;85.58
27729;BME280;15126;42.186;24.340;2023-03-17T01:46:45;99569.59;;;5.55;85.51
27729;BME280;15126;42.186;24.340;2023-03-17T01:49:20;99574.75;;;5.57;86.46
27729;BME280;15126;42.186;24.340;2023-03-17T01:51:56;99583.47;;;5.62;86.84
27729;BME280;15126;42.186;24.340;2023-03-17T01:54:29;99578.72;;;5.59;85.42
27729;BME280;15126;42.186;24.340;2023-03-17T01:57:02;99577.16;;;5.65;85.26
27729;BME280;15126;42.186;24.340;2023-03-17T01:59:37;99577.16;;;5.65;84.71
27729;BME280;15126;42.186;24.340;2023-03-17T02:02:08;99581.50;;;5.66;84.53
27729;BME280;15126;42.186;24.340;2023-03-17T02:04:37;99581.06;;;5.54;86.00
27729;BME280;15126;42.186;24.340;2023-03-17T02:07:04;99583.84;;;5.54;85.24
27729;BME280;15126;42.186;24.340;2023-03-17T02:09:32;99585.03;;;5.63;84.43
27729;BME280;15126;42.186;24.340;2023-03-17T02:12:00;99585.03;;;5.63;85.63
27729;BME280;15126;42.186;24.340;2023-03-17T02:14:28;99590.16;;;5.61;85.02
27729;BME280;15126;42.186;24.340;2023-03-17T02:16:55;99582.66;;;5.58;84.98
27729;BME280;15126;42.186;24.340;2023-03-17T02:19:23;99592.53;;;5.59;84.44
27729;BME280;15126;42.186;24.340;2023-03-17T02:21:53;99589.34;;;5.57;83.96
27729;BME280;15126;42.186;24.340;2023-03-17T02:24:27;99592.91;;;5.58;82.78
27729;BME280;15126;42.186;24.340;2023-03-17T02:26:58;99590.94;;;5.51;84.48
27729;BME280;15126;42.186;24.340;2023-03-17T02:29:26;99599.66;;;5.57;84.16
27729;BME280;15126;42.186;24.340;2023-03-17T02:31:53;99592.50;;;5.52;84.60
27729;BME280;15126;42.186;24.340;2023-03-17T02:34:20;99605.22;;;5.67;84.54
27729;BME280;15126;42.186;24.340;2023-03-17T02:36:46;99613.50;;;5.71;83.77
27729;BME280;15126;42.186;24.340;2023-03-17T02:39:15;99615.91;;;5.76;83.72
27729;BME280;15126;42.186;24.340;2023-03-17T02:41:42;99603.63;;;5.66;84.13
27729;BME280;15126;42.186;24.340;2023-03-17T02:44:08;99602.00;;;5.58;82.59
27729;BME280;15126;42.186;24.340;2023-03-17T02:46:35;99619.06;;;5.74;83.03
27729;BME280;15126;42.186;24.340;2023-03-17T02:49:03;99611.16;;;5.73;82.97
27729;BME280;15126;42.186;24.340;2023-03-17T02:51:30;99617.44;;;5.66;83.31
27729;BME280;15126;42.186;24.340;2023-03-17T02:53:57;99616.66;;;5.66;83.55
27729;BME280;15126;42.186;24.340;2023-03-17T02:56:25;99621.78;;;5.57;83.01
27729;BME280;15126;42.186;24.340;2023-03-17T02:58:52;99619.44;;;5.62;82.68
27729;BME280;15126;42.186;24.340;2023-03-17T03:01:19;99626.94;;;5.65;82.53
27729;BME280;15126;42.186;24.340;2023-03-17T03:03:46;99625.75;;;5.66;83.01
27729;BME280;15126;42.186;24.340;2023-03-17T03:06:13;99630.91;;;5.68;83.49
27729;BME280;15126;42.186;24.340;2023-03-17T03:08:40;99632.03;;;5.53;82.49
27729;BME280;15126;42.186;24.340;2023-03-17T03:11:07;99643.13;;;5.63;81.83
27729;BME280;15126;42.186;24.340;2023-03-17T03:13:35;99645.94;;;5.70;81.37
27729;BME280;15126;42.186;24.340;2023-03-17T03:16:03;99631.66;;;5.61;81.77
27729;BME280;15126;42.186;24.340;2023-03-17T03:18:30;99634.88;;;5.77;83.08
27729;BME280;15126;42.186;24.340;2023-03-17T03:20:57;99645.56;;;5.75;81.99
27729;BME280;15126;42.186;24.340;2023-03-17T03:23:24;99641.97;;;5.71;82.59
27729;BME280;15126;42.186;24.340;2023-03-17T03:25:53;99638.41;;;5.71;82.62
27729;BME280;15126;42.186;24.340;2023-03-17T03:28:20;99632.09;;;5.70;81.44
27729;BME280;15126;42.186;24.340;2023-03-17T03:30:50;99645.16;;;5.80;81.10
27729;BME280;15126;42.186;24.340;2023-03-17T03:33:17;99654.25;;;5.77;80.87
27729;BME280;15126;42.186;24.340;2023-03-17T03:35:44;99635.66;;;5.67;81.56
27729;BME280;15126;42.186;24.340;2023-03-17T03:38:11;99636.44;;;5.68;81.14
27729;BME280;15126;42.186;24.340;2023-03-17T03:40:38;99653.84;;;5.75;80.61
27729;BME280;15126;42.186;24.340;2023-03-17T03:43:05;99654.25;;;5.84;81.33
27729;BME280;15126;42.186;24.340;2023-03-17T03:45:32;99654.66;;;5.79;81.95
27729;BME280;15126;42.186;24.340;2023-03-17T03:48:01;99654.66;;;5.79;79.86
27729;BME280;15126;42.186;24.340;2023-03-17T03:50:28;99654.66;;;5.83;81.42
27729;BME280;15126;42.186;24.340;2023-03-17T03:52:55;99647.53;;;5.78;81.20
27729;BME280;15126;42.186;24.340;2023-03-17T03:55:22;99661.06;;;5.87;80.77
27729;BME280;15126;42.186;24.340;2023-03-17T03:57:49;99660.25;;;5.86;80.64
27729;BME280;15126;42.186;24.340;2023-03-17T04:00:16;99650.31;;;5.78;80.73
27729;BME280;15126;42.186;24.340;2023-03-17T04:02:44;99665.78;;;5.86;80.03
27729;BME280;15126;42.186;24.340;2023-03-17T04:05:13;99668.94;;;5.85;81.33
27729;BME280;15126;42.186;24.340;2023-03-17T04:07:40;99670.53;;;5.86;78.94
27729;BME280;15126;42.186;24.340;2023-03-17T04:10:09;99670.13;;;5.87;79.60
27729;BME280;15126;42.186;24.340;2023-03-17T04:12:36;99670.94;;;5.91;79.48
27729;BME280;15126;42.186;24.340;2023-03-17T04:15:04;99677.22;;;5.81;80.93
27729;BME280;15126;42.186;24.340;2023-03-17T04:17:31;99671.25;;;5.79;79.37
27729;BME280;15126;42.186;24.340;2023-03-17T04:19:58;99683.19;;;5.90;80.63
27729;BME280;15126;42.186;24.340;2023-03-17T04:22:26;99686.34;;;5.85;79.84
27729;BME280;15126;42.186;24.340;2023-03-17T04:24:53;99683.19;;;5.94;80.19
27729;BME280;15126;42.186;24.340;2023-03-17T04:27:20;99685.09;;;5.79;80.79
27729;BME280;15126;42.186;24.340;2023-03-17T04:29:46;99682.75;;;5.85;80.38
27729;BME280;15126;42.186;24.340;2023-03-17T04:32:14;99695.84;;;5.91;80.72
27729;BME280;15126;42.186;24.340;2023-03-17T04:34:44;99693.47;;;5.93;79.40
27729;BME280;15126;42.186;24.340;2023-03-17T04:37:10;99699.44;;;6.03;79.53
27729;BME280;15126;42.186;24.340;2023-03-17T04:39:39;99711.31;;;6.03;79.33
27729;BME280;15126;42.186;24.340;2023-03-17T04:42:06;99716.09;;;6.13;79.91
27729;BME280;15126;42.186;24.340;2023-03-17T04:44:33;99715.69;;;6.15;79.06
27729;BME280;15126;42.186;24.340;2023-03-17T04:47:01;99719.28;;;6.19;79.19
27729;BME280;15126;42.186;24.340;2023-03-17T04:49:27;99718.47;;;6.18;78.93
27729;BME280;15126;42.186;24.340;2023-03-17T04:51:54;99722.84;;;6.19;78.04
27729;BME280;15126;42.186;24.340;2023-03-17T04:54:21;99733.53;;;6.31;77.99
27729;BME280;15126;42.186;24.340;2023-03-17T04:56:49;99731.56;;;6.32;78.33
27729;BME280;15126;42.186;24.340;2023-03-17T04:59:17;99741.06;;;6.34;78.63
27729;BME280;15126;42.186;24.340;2023-03-17T05:01:43;99740.69;;;6.36;78.95
27729;BME280;15126;42.186;24.340;2023-03-17T05:04:11;99743.06;;;6.41;78.32
27729;BME280;15126;42.186;24.340;2023-03-17T05:06:38;99724.47;;;6.38;78.33
27729;BME280;15126;42.186;24.340;2023-03-17T05:09:05;99753.78;;;6.53;78.58
27729;BME280;15126;42.186;24.340;2023-03-17T05:11:32;99754.16;;;6.44;78.37
27729;BME280;15126;42.186;24.340;2023-03-17T05:14:00;99760.47;;;6.38;77.81
27729;BME280;15126;42.186;24.340;2023-03-17T05:16:27;99767.22;;;6.51;78.02
27729;BME280;15126;42.186;24.340;2023-03-17T05:18:53;99764.06;;;6.52;78.49
27729;BME280;15126;42.186;24.340;2023-03-17T05:21:20;99763.28;;;6.59;77.26
27729;BME280;15126;42.186;24.340;2023-03-17T05:23:47;99770.00;;;6.58;78.08
27729;BME280;15126;42.186;24.340;2023-03-17T05:26:14;99746.63;;;6.45;77.32
27729;BME280;15126;42.186;24.340;2023-03-17T05:28:41;99774.78;;;6.68;77.38
27729;BME280;15126;42.186;24.340;2023-03-17T05:31:09;99774.41;;;6.73;77.31
27729;BME280;15126;42.186;24.340;2023-03-17T05:33:36;99780.75;;;6.74;76.88
27729;BME280;15126;42.186;24.340;2023-03-17T05:36:04;99772.78;;;6.69;76.95
27729;BME280;15126;42.186;24.340;2023-03-17T05:38:31;99777.56;;;6.68;77.60
27729;BME280;15126;42.186;24.340;2023-03-17T05:40:58;99783.53;;;6.74;77.90
27729;BME280;15126;42.186;24.340;2023-03-17T05:43:25;99791.84;;;6.81;77.13
27729;BME280;15126;42.186;24.340;2023-03-17T05:45:52;99786.69;;;6.86;77.28
27729;BME280;15126;42.186;24.340;2023-03-17T05:48:20;99789.47;;;6.90;77.03
27729;BME280;15126;42.186;24.340;2023-03-17T05:50:48;99795.78;;;6.83;76.87
27729;BME280;15126;42.186;24.340;2023-03-17T05:53:14;99795.38;;;6.78;76.72
27729;BME280;15126;42.186;24.340;2023-03-17T05:55:42;99789.47;;;6.79;76.31
27729;BME280;15126;42.186;24.340;2023-03-17T05:58:08;99814.03;;;6.91;76.29
27729;BME280;15126;42.186;24.340;2023-03-17T06:00:35;99794.63;;;6.84;77.03
27729;BME280;15126;42.186;24.340;2023-03-17T06:03:05;99810.88;;;7.03;76.96
27729;BME280;15126;42.186;24.340;2023-03-17T06:05:34;99803.31;;;6.86;77.12
27729;BME280;15126;42.186;24.340;2023-03-17T06:08:01;99811.25;;;7.02;77.17
27729;BME280;15126;42.186;24.340;2023-03-17T06:10:29;99821.59;;;7.08;77.10
27729;BME280;15126;42.186;24.340;2023-03-17T06:12:56;99826.34;;;7.18;75.76
27729;BME280;15126;42.186;24.340;2023-03-17T06:15:23;99831.50;;;7.24;75.01
27729;BME280;15126;42.186;24.340;2023-03-17T06:17:50;99827.16;;;7.23;76.83
27729;BME280;15126;42.186;24.340;2023-03-17T06:20:18;99843.38;;;7.28;75.88
27729;BME280;15126;42.186;24.340;2023-03-17T06:22:46;99825.16;;;7.34;76.37
27729;BME280;15126;42.186;24.340;2023-03-17T06:25:13;99840.19;;;7.50;76.36
27729;BME280;15126;42.186;24.340;2023-03-17T06:27:40;99841.41;;;7.49;76.17
27729;BME280;15126;42.186;24.340;2023-03-17T06:30:09;99839.41;;;7.39;74.55
27729;BME280;15126;42.186;24.340;2023-03-17T06:32:36;99831.50;;;7.24;74.97
27729;BME280;15126;42.186;24.340;2023-03-17T06:35:04;99852.91;;;7.34;75.22
27729;BME280;15126;42.186;24.340;2023-03-17T06:37:31;99844.19;;;7.28;74.93
27729;BME280;15126;42.186;24.340;2023-03-17T06:40:00;99846.53;;;7.37;74.97
27729;BME280;15126;42.186;24.340;2023-03-17T06:42:28;99848.16;;;7.41;74.00
27729;BME280;15126;42.186;24.340;2023-03-17T06:44:56;99838.63;;;7.46;74.86
27729;BME280;15126;42.186;24.340;2023-03-17T06:47:22;99847.34;;;7.58;74.37
27729;BME280;15126;42.186;24.340;2023-03-17T06:49:50;99843.75;;;7.61;75.46
27729;BME280;15126;42.186;24.340;2023-03-17T06:52:16;99855.66;;;7.72;73.67
27729;BME280;15126;42.186;24.340;2023-03-17T06:54:43;99857.63;;;7.75;72.08
27729;BME280;15126;42.186;24.340;2023-03-17T06:57:14;99857.63;;;7.86;73.30
27729;BME280;15126;42.186;24.340;2023-03-17T06:59:41;99858.00;;;7.95;73.04
27729;BME280;15126;42.186;24.340;2023-03-17T07:02:09;99857.22;;;7.98;72.55
27729;BME280;15126;42.186;24.340;2023-03-17T07:04:36;99860.75;;;8.02;72.89
27729;BME280;15126;42.186;24.340;2023-03-17T07:07:03;99853.59;;;8.15;72.09
27729;BME280;15126;42.186;24.340;2023-03-17T07:09:31;99846.88;;;8.09;72.81
27729;BME280;15126;42.186;24.340;2023-03-17T07:11:59;99857.56;;;8.18;73.17
27729;BME280;15126;42.186;24.340;2023-03-17T07:14:31;99864.28;;;8.34;72.12
27729;BME280;15126;42.186;24.340;2023-03-17T07:17:00;99862.63;;;8.55;72.20
27729;BME280;15126;42.186;24.340;2023-03-17T07:19:27;99866.53;;;8.75;72.23
27729;BME280;15126;42.186;24.340;2023-03-17T07:21:54;99867.75;;;8.67;71.95
27729;BME280;15126;42.186;24.340;2023-03-17T07:24:27;99866.53;;;8.71;70.66
27729;BME280;15126;42.186;24.340;2023-03-17T07:26:54;99859.75;;;8.76;69.05
27729;BME280;15126;42.186;24.340;2023-03-17T07:29:21;99860.47;;;8.87;70.35
27729;BME280;15126;42.186;24.340;2023-03-17T07:31:49;99869.56;;;8.94;67.84
27729;BME280;15126;42.186;24.340;2023-03-17T07:34:16;99875.94;;;8.95;69.07
27729;BME280;15126;42.186;24.340;2023-03-17T07:36:46;99871.53;;;8.97;70.58
27729;BME280;15126;42.186;24.340;2023-03-17T07:39:13;99877.03;;;9.08;68.04
27729;BME280;15126;42.186;24.340;2023-03-17T07:41:40;99869.41;;;9.23;66.81
27729;BME280;15126;42.186;24.340;2023-03-17T07:44:08;99870.47;;;9.39;68.83
27729;BME280;15126;42.186;24.340;2023-03-17T07:46:35;99870.50;;;9.32;67.03
27729;BME280;15126;42.186;24.340;2023-03-17T07:49:04;99872.81;;;9.44;67.68
27729;BME280;15126;42.186;24.340;2023-03-17T07:51:32;99871.13;;;9.57;67.41
27729;BME280;15126;42.186;24.340;2023-03-17T07:53:59;99877.13;;;9.52;65.41
27729;BME280;15126;42.186;24.340;2023-03-17T07:56:30;99876.22;;;9.70;63.54
27729;BME280;15126;42.186;24.340;2023-03-17T07:58:58;99880.44;;;9.85;61.63
27729;BME280;15126;42.186;24.340;2023-03-17T08:01:25;99875.47;;;10.03;62.84
27729;BME280;15126;42.186;24.340;2023-03-17T08:03:53;99873.03;;;10.08;63.20
27729;BME280;15126;42.186;24.340;2023-03-17T08:06:22;99875.81;;;10.15;66.27
27729;BME280;15126;42.186;24.340;2023-03-17T08:08:51;99865.03;;;10.18;65.18
27729;BME280;15126;42.186;24.340;2023-03-17T08:11:19;99848.00;;;10.05;63.35
27729;BME280;15126;42.186;24.340;2023-03-17T08:13:47;99870.97;;;10.20;65.05
27729;BME280;15126;42.186;24.340;2023-03-17T08:16:15;99877.56;;;10.36;61.75
27729;BME280;15126;42.186;24.340;2023-03-17T08:18:42;99874.78;;;10.36;61.89
27729;BME280;15126;42.186;24.340;2023-03-17T08:21:09;99868.09;;;10.60;60.98
27729;BME280;15126;42.186;24.340;2023-03-17T08:23:39;99858.84;;;10.70;62.56
27729;BME280;15126;42.186;24.340;2023-03-17T08:26:06;99866.91;;;10.61;61.80
27729;BME280;15126;42.186;24.340;2023-03-17T08:28:33;99859.56;;;10.74;60.64
27729;BME280;15126;42.186;24.340;2023-03-17T08:31:18;99860.38;;;11.02;57.86
27729;BME280;15126;42.186;24.340;2023-03-17T08:33:51;99861.25;;;10.95;58.36
27729;BME280;15126;42.186;24.340;2023-03-17T08:36:20;99848.19;;;11.19;57.68
27729;BME280;15126;42.186;24.340;2023-03-17T08:38:49;99854.72;;;11.35;57.85
27729;BME280;15126;42.186;24.340;2023-03-17T08:41:18;99856.91;;;11.48;52.52
27729;BME280;15126;42.186;24.340;2023-03-17T08:43:46;99854.97;;;11.68;51.09
27729;BME280;15126;42.186;24.340;2023-03-17T08:46:16;99852.03;;;11.78;49.79
27729;BME280;15126;42.186;24.340;2023-03-17T08:48:44;99855.00;;;11.91;51.82
27729;BME280;15126;42.186;24.340;2023-03-17T08:51:13;99829.19;;;11.83;47.92
27729;BME280;15126;42.186;24.340;2023-03-17T08:53:41;99851.97;;;11.55;47.94
27729;BME280;15126;42.186;24.340;2023-03-17T08:56:10;99844.28;;;11.63;48.77
27729;BME280;15126;42.186;24.340;2023-03-17T08:58:38;99850.28;;;11.61;50.32
27729;BME280;15126;42.186;24.340;2023-03-17T09:01:07;99843.75;;;11.71;48.65
27729;BME280;15126;42.186;24.340;2023-03-17T09:03:37;99841.88;;;11.88;51.16
27729;BME280;15126;42.186;24.340;2023-03-17T09:06:06;99845.56;;;12.05;50.75
27729;BME280;15126;42.186;24.340;2023-03-17T09:08:34;99837.75;;;12.16;53.57
27729;BME280;15126;42.186;24.340;2023-03-17T09:11:03;99826.94;;;12.18;53.50
27729;BME280;15126;42.186;24.340;2023-03-17T09:13:33;99836.34;;;12.47;54.37
27729;BME280;15126;42.186;24.340;2023-03-17T09:16:01;99836.78;;;12.65;50.58
27729;BME280;15126;42.186;24.340;2023-03-17T09:18:28;99836.84;;;12.62;51.66
27729;BME280;15126;42.186;24.340;2023-03-17T09:20:56;99838.47;;;12.79;52.11
27729;BME280;15126;42.186;24.340;2023-03-17T09:23:23;99843.50;;;12.68;49.31
27729;BME280;15126;42.186;24.340;2023-03-17T09:25:51;99835.50;;;12.86;51.58
27729;BME280;15126;42.186;24.340;2023-03-17T09:28:18;99838.78;;;13.00;51.00
27729;BME280;15126;42.186;24.340;2023-03-17T09:30:46;99838.72;;;13.04;46.21
27729;BME280;15126;42.186;24.340;2023-03-17T09:33:13;99845.72;;;12.96;46.98
27729;BME280;15126;42.186;24.340;2023-03-17T09:35:42;99834.97;;;13.10;50.04
27729;BME280;15126;42.186;24.340;2023-03-17T09:38:09;99837.13;;;13.23;47.84
27729;BME280;15126;42.186;24.340;2023-03-17T09:40:44;99843.69;;;13.32;45.87
27729;BME280;15126;42.186;24.340;2023-03-17T09:43:18;99833.63;;;13.35;46.42
27729;BME280;15126;42.186;24.340;2023-03-17T09:45:52;99832.66;;;13.41;48.22
27729;BME280;15126;42.186;24.340;2023-03-17T09:48:37;99836.16;;;13.45;47.55
27729;BME280;15126;42.186;24.340;2023-03-17T09:51:10;99832.59;;;13.61;51.45
27729;BME280;15126;42.186;24.340;2023-03-17T09:53:46;99824.44;;;13.66;50.30
27729;BME280;15126;42.186;24.340;2023-03-17T09:56:15;99828.53;;;13.78;47.16
27729;BME280;15126;42.186;24.340;2023-03-17T09:58:47;99812.44;;;13.66;46.59
27729;BME280;15126;42.186;24.340;2023-03-17T10:01:17;99816.63;;;13.74;45.09
27729;BME280;15126;42.186;24.340;2023-03-17T10:03:45;99818.72;;;13.38;44.46
27729;BME280;15126;42.186;24.340;2023-03-17T10:06:31;99821.72;;;13.47;43.46
27729;BME280;15126;42.186;24.340;2023-03-17T10:09:05;99821.38;;;13.29;46.32
27729;BME280;15126;42.186;24.340;2023-03-17T10:11:40;99814.72;;;13.23;45.29
27729;BME280;15126;42.186;24.340;2023-03-17T10:14:20;99808.31;;;13.22;47.39
27729;BME280;15126;42.186;24.340;2023-03-17T10:16:56;99801.59;;;13.36;45.29
27729;BME280;15126;42.186;24.340;2023-03-17T10:19:27;99789.06;;;13.40;48.03
27729;BME280;15126;42.186;24.340;2023-03-17T10:21:59;99793.44;;;13.57;46.43
27729;BME280;15126;42.186;24.340;2023-03-17T10:24:30;99814.16;;;13.76;46.40
27729;BME280;15126;42.186;24.340;2023-03-17T10:27:00;99811.06;;;13.87;45.35
27729;BME280;15126;42.186;24.340;2023-03-17T10:29:31;99806.59;;;13.89;47.24
27729;BME280;15126;42.186;24.340;2023-03-17T10:32:01;99806.97;;;13.91;43.34
27729;BME280;15126;42.186;24.340;2023-03-17T10:34:30;99802.69;;;13.70;45.74
27729;BME280;15126;42.186;24.340;2023-03-17T10:37:00;99812.94;;;13.77;43.11
27729;BME280;15126;42.186;24.340;2023-03-17T10:39:30;99807.00;;;13.59;44.57
27729;BME280;15126;42.186;24.340;2023-03-17T10:41:59;99815.06;;;13.57;43.65
27729;BME280;15126;42.186;24.340;2023-03-17T10:44:47;99803.94;;;13.53;46.66
27729;BME280;15126;42.186;24.340;2023-03-17T10:47:22;99803.16;;;13.53;45.58
27729;BME280;15126;42.186;24.340;2023-03-17T10:49:50;99804.13;;;13.46;47.34
27729;BME280;15126;42.186;24.340;2023-03-17T10:52:20;99799.13;;;13.22;47.10
27729;BME280;15126;42.186;24.340;2023-03-17T10:54:49;99785.47;;;13.24;48.41
27729;BME280;15126;42.186;24.340;2023-03-17T10:57:17;99799.72;;;13.45;49.15
27729;BME280;15126;42.186;24.340;2023-03-17T10:59:48;99802.00;;;13.66;48.72
27729;BME280;15126;42.186;24.340;2023-03-17T11:02:22;99778.97;;;13.59;48.42
27729;BME280;15126;42.186;24.340;2023-03-17T11:04:53;99793.00;;;13.75;44.66
27729;BME280;15126;42.186;24.340;2023-03-17T11:07:26;99777.63;;;13.80;44.95
27729;BME280;15126;42.186;24.340;2023-03-17T11:09:56;99780.22;;;13.58;44.38
27729;BME280;15126;42.186;24.340;2023-03-17T11:12:26;99776.25;;;13.71;46.96
27729;BME280;15126;42.186;24.340;2023-03-17T11:15:00;99760.94;;;13.60;47.64
27729;BME280;15126;42.186;24.340;2023-03-17T11:17:37;99770.13;;;13.60;46.54
27729;BME280;15126;42.186;24.340;2023-03-17T11:20:19;99770.81;;;13.64;44.13
27729;BME280;15126;42.186;24.340;2023-03-17T11:22:54;99771.94;;;13.67;44.78
27729;BME280;15126;42.186;24.340;2023-03-17T11:25:23;99762.25;;;13.55;46.05
27729;BME280;15126;42.186;24.340;2023-03-17T11:27:55;99751.25;;;13.32;44.80
27729;BME280;15126;42.186;24.340;2023-03-17T11:30:29;99761.38;;;13.58;44.88
27729;BME280;15126;42.186;24.340;2023-03-17T11:33:04;99765.88;;;13.40;43.59
27729;BME280;15126;42.186;24.340;2023-03-17T11:35:44;99757.44;;;13.56;46.31
27729;BME280;15126;42.186;24.340;2023-03-17T11:38:25;99749.56;;;13.51;46.04
27729;BME280;15126;42.186;24.340;2023-03-17T11:41:13;99746.25;;;13.40;45.62
27729;BME280;15126;42.186;24.340;2023-03-17T11:44:03;99747.72;;;13.60;44.98
27729;BME280;15126;42.186;24.340;2023-03-17T11:46:36;99749.19;;;13.65;45.24
27729;BME280;15126;42.186;24.340;2023-03-17T11:49:15;99739.91;;;13.68;45.28
27729;BME280;15126;42.186;24.340;2023-03-17T11:51:51;99748.88;;;13.31;44.91
27729;BME280;15126;42.186;24.340;2023-03-17T11:54:30;99749.06;;;13.40;45.75
27729;BME280;15126;42.186;24.340;2023-03-17T11:57:04;99745.53;;;13.52;47.08
27729;BME280;15126;42.186;24.340;2023-03-17T11:59:35;99744.94;;;13.44;46.56
27729;BME280;15126;42.186;24.340;2023-03-17T12:02:14;99742.66;;;13.39;44.52
27729;BME280;15126;42.186;24.340;2023-03-17T12:04:49;99748.78;;;13.50;44.42
27729;BME280;15126;42.186;24.340;2023-03-17T12:07:21;99732.41;;;13.33;43.92
27729;BME280;15126;42.186;24.340;2023-03-17T12:09:55;99750.09;;;13.30;43.20
27729;BME280;15126;42.186;24.340;2023-03-17T12:12:30;99743.81;;;13.09;43.82
27729;BME280;15126;42.186;24.340;2023-03-17T12:14:59;99736.34;;;13.03;45.88
27729;BME280;15126;42.186;24.340;2023-03-17T12:17:33;99740.59;;;12.91;45.08
27729;BME280;15126;42.186;24.340;2023-03-17T12:20:10;99734.13;;;12.78;45.06
27729;BME280;15126;42.186;24.340;2023-03-17T12:22:43;99739.91;;;12.71;45.51
27729;BME280;15126;42.186;24.340;2023-03-17T12:25:18;99741.19;;;12.67;48.15
27729;BME280;15126;42.186;24.340;2023-03-17T12:27:53;99740.41;;;12.66;46.65
27729;BME280;15126;42.186;24.340;2023-03-17T12:30:27;99722.91;;;12.62;46.27
27729;BME280;15126;42.186;24.340;2023-03-17T12:33:01;99738.38;;;12.67;46.27
27729;BME280;15126;42.186;24.340;2023-03-17T12:35:35;99730.81;;;12.83;47.65
27729;BME280;15126;42.186;24.340;2023-03-17T12:38:07;99738.25;;;12.74;45.56
27729;BME280;15126;42.186;24.340;2023-03-17T12:40:40;99729.63;;;12.65;45.63
27729;BME280;15126;42.186;24.340;2023-03-17T12:43:24;99719.50;;;12.54;46.89
27729;BME280;15126;42.186;24.340;2023-03-17T12:46:11;99722.34;;;12.51;46.51
27729;BME280;15126;42.186;24.340;2023-03-17T12:49:04;99732.78;;;12.67;45.43
27729;BME280;15126;42.186;24.340;2023-03-17T12:51:45;99735.00;;;12.75;48.09
27729;BME280;15126;42.186;24.340;2023-03-17T12:54:20;99702.53;;;12.62;45.06
27729;BME280;15126;42.186;24.340;2023-03-17T12:56:50;99731.06;;;12.73;45.28
27729;BME280;15126;42.186;24.340;2023-03-17T12:59:19;99733.06;;;12.88;46.72
27729;BME280;15126;42.186;24.340;2023-03-17T13:01:55;99731.00;;;12.92;47.11
27729;BME280;15126;42.186;24.340;2023-03-17T13:04:24;99733.44;;;12.90;45.83
27729;BME280;15126;42.186;24.340;2023-03-17T13:06:58;99731.53;;;13.03;47.78